Time;durP1;ratioP1;P1;durP2;ratioP2;P2;SDS_P1;SDS_P2;PMS_P1;PMS_P2;Temp;Humidity;BMP_temperature;BMP_pressure;BME280_temperature;BME280_humidity;BME280_pressure;Samples;Min_cycle;Max_cycle;Signal;HPM_P1;HPM_P2
2022/12/24 00:01:22;;;;;;;4.63;2.67;;;22.20;61.30;;;;;;5111654;27;20486;-67
2022/12/24 00:03:50;;;;;;;5.70;2.00;;;22.20;61.30;;;;;;5110185;27;20465;-66
2022/12/24 00:06:21;;;;;;;3.20;2.43;;;22.20;61.30;;;;;;5110945;27;20443;-66
2022/12/24 00:08:51;;;;;;;2.00;1.40;;;22.30;61.30;;;;;;5103195;28;20551;-68
2022/12/24 00:11:20;;;;;;;5.00;2.40;;;22.30;61.30;;;;;;5113664;28;20472;-67
2022/12/24 00:13:48;;;;;;;2.60;1.83;;;22.30;61.30;;;;;;5100987;28;20451;-67
2022/12/24 00:16:17;;;;;;;1.97;1.87;;;22.30;61.30;;;;;;5104968;27;20793;-67
2022/12/24 00:18:45;;;;;;;2.50;1.80;;;22.30;61.20;;;;;;5104231;27;20967;-69
2022/12/24 00:21:15;;;;;;;3.43;1.60;;;22.30;61.20;;;;;;5120873;27;20507;-67
2022/12/24 00:23:43;;;;;;;2.00;1.83;;;22.30;61.20;;;;;;5092319;28;20445;-68
2022/12/24 00:26:13;;;;;;;1.40;1.30;;;22.30;61.20;;;;;;5101325;27;20898;-67
2022/12/24 00:28:42;;;;;;;3.90;1.30;;;22.30;61.10;;;;;;5104758;28;20448;-67
2022/12/24 00:31:13;;;;;;;3.03;1.67;;;22.30;61.10;;;;;;5111741;27;20527;-68
2022/12/24 00:33:42;;;;;;;4.37;1.60;;;22.40;61.00;;;;;;5112279;28;20451;-66
2022/12/24 00:36:10;;;;;;;2.03;1.23;;;22.30;61.00;;;;;;5114942;27;20459;-69
2022/12/24 00:38:39;;;;;;;6.10;2.10;;;22.30;61.00;;;;;;5126259;27;20431;-67
2022/12/24 00:41:23;;;;;;;1.50;1.37;;;22.30;60.90;;;;;;5127629;27;20479;-67
2022/12/24 00:43:55;;;;;;;2.43;1.30;;;22.30;60.90;;;;;;5108395;28;20497;-68
2022/12/24 00:46:24;;;;;;;3.70;1.87;;;22.30;60.90;;;;;;5113360;28;20500;-67
2022/12/24 00:48:53;;;;;;;3.63;1.60;;;22.30;60.90;;;;;;5106816;28;20453;-67
2022/12/24 00:51:22;;;;;;;2.73;1.57;;;22.30;60.90;;;;;;5100078;28;20437;-67
2022/12/24 00:53:50;;;;;;;1.97;1.50;;;22.30;60.90;;;;;;5094298;28;20813;-70
2022/12/24 00:56:19;;;;;;;2.10;1.60;;;22.30;60.90;;;;;;5095563;28;20429;-67
2022/12/24 00:58:47;;;;;;;1.70;1.30;;;22.30;60.90;;;;;;5130701;27;20451;-67
2022/12/24 01:01:17;;;;;;;1.40;1.30;;;22.20;61.00;;;;;;5133566;27;20685;-68
2022/12/24 01:03:46;;;;;;;2.77;1.50;;;22.20;60.90;;;;;;5103959;28;20441;-67
2022/12/24 01:06:15;;;;;;;2.60;2.13;;;22.20;61.00;;;;;;5111231;28;20455;-66
2022/12/24 01:08:44;;;;;;;1.93;1.50;;;22.20;61.00;;;;;;5122622;27;20896;-67
2022/12/24 01:11:13;;;;;;;2.17;1.60;;;22.20;61.00;;;;;;5108107;28;20475;-66
2022/12/24 01:13:42;;;;;;;1.77;1.00;;;22.20;60.90;;;;;;5104213;28;20568;-67
2022/12/24 01:16:19;;;;;;;1.20;1.10;;;22.20;61.00;;;;;;5092434;28;20425;-67
2022/12/24 01:18:48;;;;;;;2.20;1.60;;;22.20;61.00;;;;;;5119462;28;20449;-67
2022/12/24 01:21:16;;;;;;;1.27;1.17;;;22.20;60.90;;;;;;5114816;28;20431;-67
2022/12/24 01:23:45;;;;;;;1.60;1.30;;;22.20;60.90;;;;;;5132395;28;20558;-68
2022/12/24 01:26:13;;;;;;;1.43;1.30;;;22.20;60.90;;;;;;5132758;28;20518;-68
2022/12/24 01:28:42;;;;;;;1.47;1.20;;;22.20;60.80;;;;;;5120385;28;20444;-67
2022/12/24 01:31:12;;;;;;;1.60;1.50;;;22.10;60.80;;;;;;5102720;28;20459;-67
2022/12/24 01:33:42;;;;;;;1.67;1.57;;;22.10;60.90;;;;;;5095547;28;20907;-68
2022/12/24 01:36:11;;;;;;;1.00;0.97;;;22.10;61.00;;;;;;5092764;28;20763;-68
2022/12/24 01:38:39;;;;;;;1.03;1.00;;;22.10;60.90;;;;;;5103393;28;20450;-67
2022/12/24 01:43:59;;;;;;;2.00;1.40;;;22.10;61.00;;;;;;5097195;28;20478;-67
2022/12/24 01:46:30;;;;;;;1.27;1.10;;;22.10;61.00;;;;;;5092844;28;20515;-67
2022/12/24 01:49:05;;;;;;;1.40;1.30;;;22.10;61.00;;;;;;5112005;28;20908;-68
2022/12/24 01:51:37;;;;;;;1.20;1.10;;;22.10;61.10;;;;;;5112988;28;20499;-67
2022/12/24 01:54:10;;;;;;;1.60;0.90;;;22.10;61.10;;;;;;5111501;28;20911;-66
2022/12/24 01:56:46;;;;;;;1.13;1.03;;;22.10;61.10;;;;;;5092436;28;20534;-66
2022/12/24 01:59:18;;;;;;;1.10;1.00;;;22.20;61.00;;;;;;5095168;28;20543;-67
2022/12/24 02:01:47;;;;;;;2.17;1.20;;;22.20;61.00;;;;;;5102873;28;20462;-67
2022/12/24 02:04:26;;;;;;;2.07;1.97;;;22.20;60.90;;;;;;5117399;28;20440;-67
2022/12/24 02:06:54;;;;;;;1.30;1.17;;;22.20;60.90;;;;;;5126646;28;20467;-67
2022/12/24 02:09:22;;;;;;;2.53;2.00;;;22.20;60.90;;;;;;5128614;28;20448;-67
2022/12/24 02:11:50;;;;;;;1.13;1.00;;;22.20;60.80;;;;;;5115325;28;20420;-67
2022/12/24 02:14:18;;;;;;;0.70;0.70;;;22.20;60.80;;;;;;5116434;28;20431;-67
2022/12/24 02:16:53;;;;;;;0.83;0.80;;;22.20;60.80;;;;;;5114506;28;21006;-67
2022/12/24 02:19:51;;;;;;;4.93;1.20;;;22.20;60.80;;;;;;5115794;28;20530;-67
2022/12/24 02:22:26;;;;;;;0.80;0.80;;;22.20;60.80;;;;;;5108740;27;20487;-67
2022/12/24 02:25:20;;;;;;;1.47;1.00;;;22.20;60.80;;;;;;5114474;28;20453;-66
2022/12/24 02:27:56;;;;;;;1.17;1.07;;;22.10;60.80;;;;;;5115548;28;20963;-66
2022/12/24 02:30:33;;;;;;;1.20;1.10;;;22.10;60.80;;;;;;5111518;28;20873;-66
2022/12/24 02:33:23;;;;;;;0.93;0.90;;;22.10;60.80;;;;;;5103956;28;20447;-69
2022/12/24 02:35:59;;;;;;;1.13;1.03;;;22.10;60.90;;;;;;5104031;27;20450;-67
2022/12/24 02:38:33;;;;;;;1.30;0.73;;;22.10;60.80;;;;;;5108873;28;20543;-67
2022/12/24 02:41:05;;;;;;;1.30;1.20;;;22.10;60.90;;;;;;5103804;27;20497;-67
2022/12/24 02:43:37;;;;;;;3.23;1.20;;;22.10;60.90;;;;;;5135804;27;20431;-67
2022/12/24 02:46:10;;;;;;;1.53;1.33;;;22.10;60.90;;;;;;5135514;27;20447;-67
2022/12/24 02:48:42;;;;;;;0.67;0.60;;;22.10;61.00;;;;;;5135903;27;20443;-66
2022/12/24 02:51:11;;;;;;;1.00;0.93;;;22.10;61.00;;;;;;5135466;27;20450;-68
2022/12/24 02:53:40;;;;;;;1.30;1.20;;;22.10;61.00;;;;;;5125134;27;20463;-66
2022/12/24 02:56:54;;;;;;;1.27;1.17;;;22.10;60.90;;;;;;5115522;28;20421;-67
2022/12/24 02:59:37;;;;;;;1.57;1.00;;;22.10;60.90;;;;;;5025756;28;20435;-67
2022/12/24 03:02:19;;;;;;;2.10;1.17;;;22.10;60.90;;;;;;5124800;27;20459;-67
2022/12/24 03:04:56;;;;;;;0.90;0.90;;;22.10;60.90;;;;;;5110276;27;20788;-67
2022/12/24 03:07:29;;;;;;;0.87;0.83;;;22.10;60.90;;;;;;5111165;27;20498;-66
2022/12/24 03:10:14;;;;;;;2.50;0.80;;;22.10;60.80;;;;;;5135973;27;20488;-66
2022/12/24 03:12:46;;;;;;;0.90;0.80;;;22.10;60.80;;;;;;5102103;28;20450;-66
2022/12/24 03:15:17;;;;;;;1.10;1.00;;;22.10;60.80;;;;;;5127469;27;20510;-66
2022/12/24 03:17:49;;;;;;;0.83;0.80;;;22.10;60.80;;;;;;5114917;28;20464;-68
2022/12/24 03:20:22;;;;;;;0.90;0.80;;;22.10;60.80;;;;;;5132857;27;20942;-67
2022/12/24 03:22:51;;;;;;;1.20;1.17;;;22.10;60.80;;;;;;5135032;27;20862;-67
2022/12/24 03:25:21;;;;;;;1.13;0.83;;;22.10;60.80;;;;;;5113332;27;20453;-67
2022/12/24 03:27:49;;;;;;;1.27;0.87;;;22.10;60.80;;;;;;5111818;28;20839;-66
2022/12/24 03:30:18;;;;;;;1.30;1.20;;;22.10;60.80;;;;;;5114832;28;20436;-67
2022/12/24 03:32:48;;;;;;;0.80;0.80;;;22.10;60.80;;;;;;5114531;27;20466;-67
2022/12/24 03:35:16;;;;;;;1.30;1.20;;;22.10;60.80;;;;;;5114336;28;20913;-67
2022/12/24 03:37:44;;;;;;;1.00;0.90;;;22.00;60.80;;;;;;5114375;28;20428;-68
2022/12/24 03:40:13;;;;;;;0.97;0.87;;;22.00;60.90;;;;;;5112611;28;20471;-67
2022/12/24 03:42:41;;;;;;;0.77;0.77;;;22.00;60.90;;;;;;5114369;28;20484;-67
2022/12/24 03:45:10;;;;;;;2.27;0.87;;;22.00;61.00;;;;;;5106455;28;20931;-66
2022/12/24 03:47:38;;;;;;;2.20;0.93;;;22.00;61.00;;;;;;5118594;27;20474;-66
2022/12/24 03:50:08;;;;;;;0.70;0.70;;;22.10;61.00;;;;;;5124729;27;20440;-66
2022/12/24 03:52:39;;;;;;;0.67;0.60;;;22.10;61.00;;;;;;5110946;28;20995;-67
2022/12/24 03:55:08;;;;;;;1.00;0.90;;;22.10;60.90;;;;;;5122819;27;20438;-67
2022/12/24 03:57:39;;;;;;;1.70;1.00;;;22.10;60.90;;;;;;5134436;27;20446;-68
2022/12/24 04:00:08;;;;;;;1.03;0.93;;;22.10;60.80;;;;;;5123046;27;20909;-67
2022/12/24 04:02:40;;;;;;;0.80;0.80;;;22.10;60.80;;;;;;5134537;27;20448;-67
2022/12/24 04:05:14;;;;;;;1.27;1.00;;;22.10;60.80;;;;;;5114934;27;20461;-68
2022/12/24 04:07:42;;;;;;;2.60;1.03;;;22.10;60.80;;;;;;5113708;28;20479;-68
2022/12/24 04:10:11;;;;;;;1.20;0.83;;;22.10;60.70;;;;;;5105620;28;20440;-67
2022/12/24 04:12:40;;;;;;;1.00;0.90;;;22.10;60.70;;;;;;5113808;28;20908;-67
2022/12/24 04:15:09;;;;;;;1.00;0.70;;;22.10;60.70;;;;;;5113676;28;20969;-66
2022/12/24 04:17:37;;;;;;;1.30;0.77;;;22.10;60.70;;;;;;5113245;28;20471;-66
2022/12/24 04:20:07;;;;;;;0.87;0.80;;;22.10;60.70;;;;;;5093442;28;20838;-66
2022/12/24 04:22:36;;;;;;;1.00;0.90;;;22.10;60.70;;;;;;5100465;28;20477;-67
2022/12/24 04:25:05;;;;;;;0.70;0.67;;;22.10;60.70;;;;;;5113189;28;20421;-68
2022/12/24 04:27:33;;;;;;;1.53;0.67;;;22.10;60.70;;;;;;5113624;28;20453;-67
2022/12/24 04:30:01;;;;;;;1.03;1.03;;;22.10;60.70;;;;;;5113549;28;21206;-67
2022/12/24 04:32:30;;;;;;;0.60;0.60;;;22.00;60.70;;;;;;5112619;28;20460;-67
2022/12/24 04:34:58;;;;;;;1.57;0.77;;;22.00;60.80;;;;;;5111907;28;20444;-67
2022/12/24 04:37:27;;;;;;;1.33;0.80;;;22.00;60.80;;;;;;5104981;28;20944;-67
2022/12/24 04:39:56;;;;;;;1.33;0.70;;;22.00;60.90;;;;;;5092824;28;20968;-67
2022/12/24 04:42:24;;;;;;;0.90;0.90;;;22.00;60.90;;;;;;5111619;28;20467;-67
2022/12/24 04:44:52;;;;;;;0.60;0.60;;;22.10;60.80;;;;;;5113750;28;20443;-67
2022/12/24 04:47:20;;;;;;;0.90;0.70;;;22.10;60.80;;;;;;5112695;28;20462;-66
2022/12/24 04:49:49;;;;;;;0.87;0.67;;;22.10;60.80;;;;;;5113780;28;20877;-67
2022/12/24 04:52:17;;;;;;;0.70;0.60;;;22.10;60.70;;;;;;5112756;28;20441;-67
2022/12/24 04:54:45;;;;;;;1.27;0.90;;;22.10;60.70;;;;;;5113213;28;20443;-68
2022/12/24 04:57:15;;;;;;;1.50;0.70;;;22.10;60.60;;;;;;5106560;27;20449;-69
2022/12/24 04:59:43;;;;;;;0.50;0.50;;;22.10;60.60;;;;;;5102554;28;20774;-67
2022/12/24 05:02:11;;;;;;;0.77;0.77;;;22.10;60.60;;;;;;5109710;28;20472;-68
2022/12/24 05:04:39;;;;;;;2.10;0.70;;;22.10;60.60;;;;;;5106598;28;20841;-67
2022/12/24 05:07:07;;;;;;;1.00;1.00;;;22.10;60.60;;;;;;5132748;27;20567;-67
2022/12/24 05:09:36;;;;;;;1.53;1.43;;;22.10;60.60;;;;;;5112619;28;20943;-67
2022/12/24 05:12:05;;;;;;;0.60;0.60;;;22.10;60.60;;;;;;5113152;28;20459;-67
2022/12/24 05:14:34;;;;;;;0.70;0.70;;;22.10;60.70;;;;;;5109764;28;20986;-67
2022/12/24 05:17:02;;;;;;;0.77;0.77;;;22.00;60.70;;;;;;5112904;28;20428;-69
2022/12/24 05:19:31;;;;;;;0.93;0.90;;;22.00;60.80;;;;;;5112718;28;20428;-68
2022/12/24 05:27:30;;;;;;;2.67;0.87;;;22.00;60.80;;;;;;5106514;28;20952;-68
2022/12/24 05:29:59;;;;;;;0.70;0.70;;;22.00;60.90;;;;;;5100322;28;20921;-68
2022/12/24 05:32:28;;;;;;;0.80;0.80;;;22.00;60.90;;;;;;5100100;28;20465;-68
2022/12/24 05:34:56;;;;;;;1.00;0.70;;;22.10;60.90;;;;;;5095240;28;20539;-67
2022/12/24 05:37:24;;;;;;;0.60;0.60;;;22.10;60.90;;;;;;5111959;28;20860;-67
2022/12/24 05:39:52;;;;;;;0.53;0.53;;;22.10;60.90;;;;;;5114949;28;20464;-68
2022/12/24 05:42:20;;;;;;;0.60;0.60;;;22.10;60.90;;;;;;5107219;28;20479;-67
2022/12/24 05:44:49;;;;;;;0.60;0.60;;;22.10;60.90;;;;;;5093926;28;20524;-67
2022/12/24 05:47:18;;;;;;;0.70;0.70;;;22.20;60.80;;;;;;5106979;28;20436;-67
2022/12/24 05:49:46;;;;;;;0.97;0.70;;;22.20;60.80;;;;;;5114798;28;20536;-67
2022/12/24 05:52:14;;;;;;;0.63;0.60;;;22.20;60.70;;;;;;5115955;28;20507;-68
2022/12/24 05:54:42;;;;;;;1.50;0.70;;;22.20;60.70;;;;;;5115869;28;20454;-68
2022/12/24 05:57:10;;;;;;;0.50;0.50;;;22.20;60.60;;;;;;5102441;28;20450;-68
2022/12/24 05:59:38;;;;;;;1.07;0.60;;;22.20;60.60;;;;;;5100395;28;20490;-67
2022/12/24 06:02:06;;;;;;;0.50;0.50;;;22.20;60.50;;;;;;5114674;27;20470;-67
2022/12/24 06:04:36;;;;;;;0.67;0.67;;;22.20;60.50;;;;;;5116856;28;20431;-67
2022/12/24 06:07:04;;;;;;;0.60;0.53;;;22.20;60.50;;;;;;5114718;28;20907;-67
2022/12/24 06:09:33;;;;;;;1.03;0.93;;;22.20;60.40;;;;;;5115468;28;20467;-67
2022/12/24 06:12:01;;;;;;;0.70;0.70;;;22.20;60.40;;;;;;5136446;27;20435;-68
2022/12/24 06:14:29;;;;;;;0.77;0.63;;;22.20;60.40;;;;;;5136848;27;20488;-67
2022/12/24 06:16:57;;;;;;;0.67;0.67;;;22.20;60.50;;;;;;5127066;27;20759;-67
2022/12/24 06:19:25;;;;;;;0.73;0.73;;;22.20;60.40;;;;;;5106208;28;20545;-67
2022/12/24 06:21:56;;;;;;;0.73;0.70;;;22.20;60.50;;;;;;5107984;28;20529;-67
2022/12/24 06:24:24;;;;;;;0.60;0.50;;;22.20;60.50;;;;;;5109529;28;20454;-67
2022/12/24 06:26:52;;;;;;;0.87;0.80;;;22.10;60.50;;;;;;5106397;28;20484;-67
2022/12/24 06:29:21;;;;;;;1.57;0.70;;;22.10;60.50;;;;;;5115637;28;20438;-68
2022/12/24 06:31:49;;;;;;;1.70;0.70;;;22.10;60.40;;;;;;5118812;27;20459;-67
2022/12/24 06:34:17;;;;;;;0.70;0.70;;;22.10;60.50;;;;;;5109378;28;20456;-69
2022/12/24 06:36:45;;;;;;;2.00;0.50;;;22.10;60.50;;;;;;5115118;28;20909;-70
2022/12/24 06:39:14;;;;;;;0.63;0.63;;;22.10;60.50;;;;;;5115562;28;20786;-67
2022/12/24 06:41:43;;;;;;;0.60;0.60;;;22.00;60.60;;;;;;5115309;28;20467;-68
2022/12/24 06:44:11;;;;;;;0.83;0.80;;;22.00;60.50;;;;;;5115699;28;20908;-69
2022/12/24 06:46:39;;;;;;;0.50;0.50;;;22.00;60.50;;;;;;5108256;28;20458;-68
2022/12/24 06:49:08;;;;;;;1.10;0.80;;;22.00;60.60;;;;;;5102863;27;20933;-67
2022/12/24 06:51:37;;;;;;;1.30;0.57;;;22.00;60.50;;;;;;5111391;28;20452;-67
2022/12/24 06:54:05;;;;;;;1.90;0.70;;;22.10;60.50;;;;;;5113656;28;20545;-67
2022/12/24 06:56:35;;;;;;;0.87;0.77;;;22.10;60.70;;;;;;5114526;28;20462;-68
2022/12/24 06:59:04;;;;;;;0.77;0.60;;;22.10;60.70;;;;;;5109020;28;20452;-67
2022/12/24 07:01:33;;;;;;;1.27;0.70;;;22.10;60.70;;;;;;5107001;27;20460;-68
2022/12/24 07:04:01;;;;;;;2.97;0.90;;;22.10;60.70;;;;;;5115299;27;20558;-67
2022/12/24 07:06:30;;;;;;;0.73;0.70;;;22.10;60.70;;;;;;5107170;28;20821;-67
2022/12/24 07:08:58;;;;;;;0.60;0.60;;;22.10;60.70;;;;;;5110597;27;20924;-71
2022/12/24 07:11:27;;;;;;;1.13;1.07;;;22.10;60.60;;;;;;5113014;27;20449;-67
2022/12/24 07:13:56;;;;;;;1.90;0.67;;;22.10;60.70;;;;;;5107890;27;20456;-67
2022/12/24 07:16:24;;;;;;;0.40;0.40;;;22.10;60.60;;;;;;5116589;27;20448;-67
2022/12/24 07:18:52;;;;;;;0.80;0.80;;;22.10;60.50;;;;;;5107922;27;20959;-67
2022/12/24 07:21:20;;;;;;;0.53;0.53;;;22.20;60.60;;;;;;5107975;27;20472;-67
2022/12/24 07:23:49;;;;;;;0.60;0.60;;;22.10;60.50;;;;;;5107960;27;20476;-67
2022/12/24 07:26:17;;;;;;;2.20;0.70;;;22.10;60.50;;;;;;5111742;27;20927;-67
2022/12/24 07:28:45;;;;;;;0.60;0.60;;;22.10;60.50;;;;;;5109669;27;20452;-67
2022/12/24 07:31:14;;;;;;;0.70;0.70;;;22.10;60.60;;;;;;5109608;27;20952;-67
2022/12/24 07:33:42;;;;;;;0.70;0.70;;;22.10;60.60;;;;;;5106230;27;21424;-70
2022/12/24 07:36:17;;;;;;;0.57;0.57;;;22.10;60.60;;;;;;5113489;27;20466;-68
2022/12/24 07:38:45;;;;;;;0.67;0.67;;;22.10;60.60;;;;;;5106048;27;20452;-68
2022/12/24 07:41:14;;;;;;;0.87;0.70;;;22.10;60.60;;;;;;5106457;28;20479;-67
2022/12/24 07:43:42;;;;;;;0.50;0.50;;;22.10;60.50;;;;;;5103455;28;20469;-66
2022/12/24 07:46:10;;;;;;;1.00;0.70;;;22.10;60.60;;;;;;5108499;27;20786;-67
2022/12/24 07:48:40;;;;;;;0.80;0.77;;;22.10;60.60;;;;;;5111203;27;20448;-67
2022/12/24 07:51:08;;;;;;;0.80;0.63;;;22.10;60.70;;;;;;5108722;27;20441;-66
2022/12/24 07:53:36;;;;;;;1.80;0.70;;;22.10;60.70;;;;;;5104020;27;20456;-67
2022/12/24 07:56:05;;;;;;;0.80;0.80;;;22.10;60.70;;;;;;5108562;27;20479;-69
2022/12/24 07:58:39;;;;;;;0.53;0.53;;;22.10;60.70;;;;;;5104573;28;20543;-66
2022/12/24 08:01:09;;;;;;;0.63;0.63;;;22.10;60.70;;;;;;5104155;27;20437;-68
2022/12/24 08:03:37;;;;;;;3.13;0.80;;;22.10;60.70;;;;;;5097442;27;20471;-66
2022/12/24 08:06:07;;;;;;;0.97;0.70;;;22.10;60.70;;;;;;5103309;27;20510;-66
2022/12/24 08:08:36;;;;;;;1.70;0.73;;;22.10;60.70;;;;;;5099300;27;20444;-66
2022/12/24 08:11:06;;;;;;;1.10;0.70;;;22.10;60.70;;;;;;5100040;27;20464;-68
2022/12/24 08:13:35;;;;;;;1.03;0.63;;;22.10;60.70;;;;;;5102315;27;20528;-67
2022/12/24 08:16:04;;;;;;;2.17;0.60;;;22.10;60.70;;;;;;5097527;27;20452;-70
2022/12/24 08:18:32;;;;;;;1.47;0.60;;;22.10;60.70;;;;;;5105200;27;20494;-67
2022/12/24 08:21:00;;;;;;;0.93;0.70;;;22.10;60.80;;;;;;5111843;27;20445;-68
2022/12/24 08:23:30;;;;;;;0.70;0.50;;;22.10;60.80;;;;;;5107635;27;20503;-67
2022/12/24 08:25:58;;;;;;;2.43;0.93;;;22.10;60.80;;;;;;5115180;27;20492;-66
2022/12/24 08:28:26;;;;;;;7.63;1.00;;;22.10;60.80;;;;;;5112042;27;20441;-67
2022/12/24 08:30:55;;;;;;;1.90;0.80;;;22.10;60.80;;;;;;5113251;27;20931;-67
2022/12/24 08:33:23;;;;;;;1.70;0.87;;;22.20;60.80;;;;;;5116990;27;20480;-67
2022/12/24 08:35:53;;;;;;;1.57;0.90;;;22.20;60.90;;;;;;5119873;27;20436;-67
2022/12/24 08:38:21;;;;;;;3.60;1.27;;;22.20;60.90;;;;;;5107029;27;20448;-68
2022/12/24 08:40:53;;;;;;;2.07;1.00;;;22.20;61.00;;;;;;5091810;28;20548;-67
2022/12/24 08:43:21;;;;;;;2.00;1.13;;;22.20;61.00;;;;;;5103207;27;20498;-67
2022/12/24 08:45:50;;;;;;;3.43;0.97;;;22.20;61.00;;;;;;5112652;28;20519;-68
2022/12/24 08:48:18;;;;;;;6.53;1.53;;;22.30;61.00;;;;;;5109702;28;20505;-68
2022/12/24 08:50:46;;;;;;;1.93;1.13;;;22.30;60.90;;;;;;5113420;28;20451;-67
2022/12/24 08:53:15;;;;;;;2.40;0.97;;;22.30;61.00;;;;;;5109592;28;20848;-68
2022/12/24 08:55:43;;;;;;;1.70;1.10;;;22.30;61.00;;;;;;5113140;28;20532;-67
2022/12/24 08:58:16;;;;;;;9.07;2.60;;;22.30;61.00;;;;;;5102902;28;20456;-69
2022/12/24 09:00:44;;;;;;;2.30;1.23;;;22.30;61.00;;;;;;5097771;28;20547;-69
2022/12/24 09:03:14;;;;;;;4.30;1.30;;;22.30;61.00;;;;;;5106059;28;20479;-68
2022/12/24 09:05:46;;;;;;;3.03;1.20;;;22.30;61.00;;;;;;5104855;28;20958;-69
2022/12/24 09:08:14;;;;;;;2.93;1.87;;;22.40;61.00;;;;;;5110927;28;21044;-69
2022/12/24 09:10:42;;;;;;;3.77;1.20;;;22.30;60.90;;;;;;5111535;28;20544;-68
2022/12/24 09:13:10;;;;;;;7.90;1.10;;;22.30;60.80;;;;;;5107601;28;20456;-69
2022/12/24 09:15:40;;;;;;;3.50;1.20;;;22.30;60.70;;;;;;5116966;28;20522;-68
2022/12/24 09:18:09;;;;;;;2.70;1.20;;;22.30;60.80;;;;;;5112884;28;21034;-68
2022/12/24 09:20:37;;;;;;;2.00;0.83;;;22.30;60.70;;;;;;5116965;28;20826;-70
2022/12/24 09:23:12;;;;;;;1.77;0.97;;;22.30;60.70;;;;;;5104526;28;20461;-69
2022/12/24 09:25:41;;;;;;;1.73;1.10;;;22.30;60.70;;;;;;5106698;28;20477;-69
2022/12/24 09:28:10;;;;;;;3.70;1.33;;;22.30;60.80;;;;;;5116288;28;20469;-70
2022/12/24 09:30:39;;;;;;;2.10;1.20;;;22.30;60.80;;;;;;5112027;28;20457;-69
2022/12/24 09:33:07;;;;;;;5.60;1.63;;;22.20;60.90;;;;;;5110692;28;20471;-69
2022/12/24 09:35:38;;;;;;;7.47;1.50;;;22.30;60.90;;;;;;5108709;28;20455;-69
2022/12/24 09:38:07;;;;;;;4.63;1.23;;;22.20;60.90;;;;;;5107661;28;20460;-69
2022/12/24 09:40:39;;;;;;;2.03;1.30;;;22.30;60.90;;;;;;5106354;28;20628;-69
2022/12/24 09:43:14;;;;;;;8.47;2.00;;;22.30;61.00;;;;;;5110895;28;20532;-70
2022/12/24 09:45:49;;;;;;;1.53;1.10;;;22.30;61.00;;;;;;5110674;28;20509;-72
2022/12/24 09:48:22;;;;;;;4.00;1.00;;;22.30;61.00;;;;;;5115474;28;20455;-71
2022/12/24 09:50:56;;;;;;;3.60;1.30;;;22.30;61.10;;;;;;5104714;28;20558;-69
2022/12/24 09:53:29;;;;;;;1.10;1.00;;;22.30;61.10;;;;;;5109368;28;20904;-70
2022/12/24 09:56:01;;;;;;;2.37;1.57;;;22.30;61.10;;;;;;5103147;28;20444;-70
2022/12/24 09:58:33;;;;;;;2.50;0.97;;;22.30;61.10;;;;;;5100141;28;21076;-70
2022/12/24 10:01:03;;;;;;;3.77;1.30;;;22.30;61.00;;;;;;5105928;28;20472;-70
2022/12/24 10:03:31;;;;;;;2.60;1.40;;;22.30;61.00;;;;;;5102499;28;20983;-73
2022/12/24 10:06:10;;;;;;;3.40;1.30;;;22.40;60.90;;;;;;5106010;28;20460;-70
2022/12/24 10:08:49;;;;;;;1.43;1.00;;;22.40;60.90;;;;;;5083609;28;20460;-70
2022/12/24 10:11:23;;;;;;;4.73;1.40;;;22.40;60.90;;;;;;5091805;28;20493;-70
2022/12/24 10:14:03;;;;;;;3.93;1.80;;;22.40;60.90;;;;;;5088190;28;20546;-70
2022/12/24 10:16:42;;;;;;;1.27;1.03;;;22.40;61.00;;;;;;5086770;28;20452;-70
2022/12/24 10:19:17;;;;;;;0.90;0.90;;;22.40;60.90;;;;;;5081816;28;20535;-70
2022/12/24 10:21:58;;;;;;;2.53;1.30;;;22.40;60.90;;;;;;5074810;28;20450;-72
2022/12/24 10:24:31;;;;;;;1.47;1.37;;;22.40;60.90;;;;;;5077089;28;20464;-69
2022/12/24 10:27:02;;;;;;;2.00;1.27;;;22.40;60.90;;;;;;5078444;28;20457;-70
2022/12/24 10:29:34;;;;;;;3.30;1.73;;;22.40;60.90;;;;;;5079018;28;20570;-73
2022/12/24 10:32:16;;;;;;;5.50;1.27;;;22.40;61.00;;;;;;5083314;28;20446;-69
2022/12/24 10:34:46;;;;;;;8.07;2.90;;;22.40;60.90;;;;;;5091022;28;20553;-69
2022/12/24 10:37:17;;;;;;;4.17;1.20;;;22.50;60.70;;;;;;5089348;28;20553;-69
2022/12/24 10:39:45;;;;;;;1.50;1.23;;;22.50;60.70;;;;;;5103931;28;20441;-72
2022/12/24 10:42:15;;;;;;;2.80;1.17;;;22.50;60.70;;;;;;5099758;28;20480;-68
2022/12/24 10:44:47;;;;;;;3.13;1.17;;;22.50;60.70;;;;;;5084522;28;20477;-70
2022/12/24 10:47:20;;;;;;;2.07;1.50;;;22.60;60.70;;;;;;5073714;28;20494;-69
2022/12/24 10:49:55;;;;;;;2.60;1.30;;;22.60;60.70;;;;;;5082178;28;21000;-70
2022/12/24 10:52:27;;;;;;;4.37;1.60;;;22.60;60.50;;;;;;5084360;28;20454;-70
2022/12/24 10:55:11;;;;;;;5.70;1.30;;;22.60;60.40;;;;;;5084342;28;20846;-71
2022/12/24 10:57:40;;;;;;;2.60;1.10;;;22.60;60.30;;;;;;5079159;28;20455;-70
2022/12/24 11:00:19;;;;;;;3.93;1.60;;;22.70;60.20;;;;;;5080174;28;20464;-70
2022/12/24 11:03:04;;;;;;;4.30;2.10;;;22.70;60.20;;;;;;5083834;28;20445;-70
2022/12/24 11:05:34;;;;;;;3.10;1.27;;;22.60;60.10;;;;;;5084503;28;20523;-69
2022/12/24 11:08:05;;;;;;;1.80;1.37;;;22.60;60.10;;;;;;5107189;27;20486;-70
2022/12/24 11:10:35;;;;;;;5.53;1.13;;;22.60;60.20;;;;;;5104104;27;20523;-69
2022/12/24 11:13:03;;;;;;;2.83;1.60;;;22.60;60.10;;;;;;5104650;27;20928;-70
2022/12/24 11:16:01;;;;;;;2.07;1.10;;;22.60;60.20;;;;;;5103479;27;20463;-70
2022/12/24 11:18:32;;;;;;;1.20;1.10;;;22.50;60.10;;;;;;5102504;27;20458;-70
2022/12/24 11:21:00;;;;;;;3.83;1.50;;;22.50;60.10;;;;;;5096806;27;20636;-73
2022/12/24 11:23:29;;;;;;;15.13;1.43;;;22.50;60.20;;;;;;5099359;27;20540;-71
2022/12/24 11:25:58;;;;;;;2.20;1.37;;;22.50;60.20;;;;;;5106209;27;20509;-70
2022/12/24 11:28:28;;;;;;;2.63;1.57;;;22.50;60.20;;;;;;5104495;27;20464;-69
2022/12/24 11:31:03;;;;;;;2.97;1.50;;;22.50;60.30;;;;;;5107214;28;20750;-70
2022/12/24 11:33:46;;;;;;;2.03;1.30;;;22.50;60.30;;;;;;5107806;28;20531;-70
2022/12/24 11:36:17;;;;;;;3.53;1.30;;;22.50;60.40;;;;;;5109059;28;20539;-72
2022/12/24 11:38:53;;;;;;;3.23;1.40;;;22.50;60.40;;;;;;5109166;28;20535;-70
2022/12/24 11:41:22;;;;;;;3.80;1.80;;;22.60;60.40;;;;;;5109096;28;20471;-67
2022/12/24 11:44:02;;;;;;;1.93;1.17;;;22.60;60.20;;;;;;5110414;28;20466;-70
2022/12/24 11:46:38;;;;;;;3.97;1.17;;;22.70;60.20;;;;;;5109390;27;20557;-67
2022/12/24 11:49:22;;;;;;;3.93;1.50;;;22.70;60.10;;;;;;5113794;27;20452;-70
2022/12/24 11:52:17;;;;;;;2.97;1.20;;;22.80;60.00;;;;;;5105802;27;20488;-70
2022/12/24 11:54:52;;;;;;;2.27;1.10;;;22.80;59.80;;;;;;5111260;28;20432;-69
2022/12/24 11:57:26;;;;;;;2.70;1.20;;;22.90;59.80;;;;;;5111326;27;20948;-68
2022/12/24 11:59:54;;;;;;;2.60;1.13;;;22.90;59.60;;;;;;5109975;28;20543;-67
2022/12/24 12:02:26;;;;;;;5.90;1.40;;;22.90;59.60;;;;;;5112892;28;20444;-68
2022/12/24 12:04:59;;;;;;;5.73;1.47;;;23.00;59.50;;;;;;5105102;28;20476;-69
2022/12/24 12:07:30;;;;;;;2.20;1.30;;;23.00;59.50;;;;;;5107418;28;20562;-68
2022/12/24 12:10:03;;;;;;;2.57;1.40;;;23.00;59.50;;;;;;5109762;28;20540;-69
2022/12/24 12:12:35;;;;;;;1.60;1.00;;;22.90;59.50;;;;;;5112978;27;20508;-68
2022/12/24 12:15:11;;;;;;;4.70;1.23;;;23.00;59.70;;;;;;5116611;27;20780;-68
2022/12/24 12:17:43;;;;;;;2.73;1.20;;;23.00;60.00;;;;;;5111086;27;21019;-71
2022/12/24 12:20:18;;;;;;;1.70;1.60;;;23.10;60.10;;;;;;5094702;28;20942;-68
2022/12/24 12:22:56;;;;;;;2.00;1.10;;;23.20;60.00;;;;;;5104245;27;20453;-68
2022/12/24 12:25:30;;;;;;;2.80;1.97;;;23.40;59.50;;;;;;5106145;28;20568;-67
2022/12/24 12:28:02;;;;;;;1.50;1.40;;;23.50;59.40;;;;;;5102447;27;20526;-68
2022/12/24 12:30:31;;;;;;;1.47;1.07;;;23.60;59.30;;;;;;5106681;27;20960;-67
2022/12/24 12:33:05;;;;;;;2.87;1.17;;;23.70;59.60;;;;;;5112637;27;20456;-68
2022/12/24 12:35:38;;;;;;;3.17;1.07;;;23.70;59.50;;;;;;5104471;28;20791;-69
2022/12/24 12:38:11;;;;;;;3.33;1.70;;;23.70;59.50;;;;;;5100277;28;20941;-68
2022/12/24 12:40:54;;;;;;;3.53;1.30;;;23.70;59.40;;;;;;5097671;28;20483;-69
2022/12/24 12:43:40;;;;;;;2.97;1.20;;;23.70;59.40;;;;;;5111320;27;20469;-70
2022/12/24 12:46:20;;;;;;;2.70;1.63;;;23.60;59.40;;;;;;5103663;27;20560;-69
2022/12/24 12:49:07;;;;;;;2.80;1.50;;;23.50;59.60;;;;;;5107480;28;21272;-68
2022/12/24 12:51:45;;;;;;;4.22;1.50;;;23.50;59.80;;;;;;5085727;27;20414;-67
2022/12/24 12:54:31;;;;;;;3.40;1.53;;;23.40;59.90;;;;;;5097210;28;20703;-67
2022/12/24 12:57:04;;;;;;;3.23;1.40;;;23.40;60.00;;;;;;5105112;27;20460;-66
2022/12/24 12:59:38;;;;;;;4.27;1.60;;;23.40;59.80;;;;;;5112422;27;20443;-66
2022/12/24 13:02:32;;;;;;;4.00;1.60;;;23.30;59.80;;;;;;5101352;27;20455;-68
2022/12/24 13:05:44;;;;;;;2.50;1.07;;;23.30;59.60;;;;;;5098573;28;20507;-66
2022/12/24 13:08:53;;;;;;;7.37;1.93;;;23.30;59.60;;;;;;5109434;28;20480;-65
2022/12/24 13:11:50;;;;;;;3.07;1.50;;;23.30;59.70;;;;;;5088126;28;20520;-65
2022/12/24 13:14:45;;;;;;;5.00;2.00;;;23.30;59.70;;;;;;5106068;28;20552;-68
2022/12/24 13:17:33;;;;;;;2.77;1.37;;;23.20;59.70;;;;;;5100135;28;20546;-64
2022/12/24 13:20:14;;;;;;;10.60;2.63;;;23.20;59.80;;;;;;5101696;28;20448;-65